THY7SP LTFM-LDZA
Flight info
| Callsign | THY7SP |
|---|---|
| Flight time | N/A |
| Altitude | 36000 |
| Route | VADEN1E/36 VADEN N618 BAKLO DCT ROVAM DCT DOLAP DCT IRDIV DCT TEBLI |
| Aircraft | A321/M-SDE3FGHIRWY/LB1 |
Departure
| Time | N/A |
|---|---|
| Airport | İstanbul Airport (LTFM) |
Arrival
| Time | 2026-05-04 23:12 |
|---|---|
| Airport | Zagreb Franjo Tuđman International Airport (LDZA) |
| Time | Latitude | Longitude | Altitude | Speed | Heading |
|---|---|---|---|---|---|
| 2026-05-04 23:10 | 45.79876 | 16.15393 | 1727 ft | 148 kts | 226° |
| 2026-05-04 23:10 | 45.79171 | 16.14314 | 1508 ft | 148 kts | 227° |
| 2026-05-04 23:10 | 45.78463 | 16.13246 | 1285 ft | 148 kts | 226° |
| 2026-05-04 23:10 | 45.77760 | 16.12174 | 1089 ft | 148 kts | 227° |
| 2026-05-04 23:11 | 45.77062 | 16.11095 | 910 ft | 147 kts | 227° |
| 2026-05-04 23:11 | 45.76363 | 16.10022 | 715 ft | 147 kts | 226° |
| 2026-05-04 23:11 | 45.75669 | 16.08967 | 494 ft | 146 kts | 227° |
| 2026-05-04 23:11 | 45.74972 | 16.07909 | 366 ft | 142 kts | 226° |
| 2026-05-04 23:12 | 45.74408 | 16.07053 | 361 ft | 84 kts | 226° |
| 2026-05-04 23:12 | 45.74192 | 16.06723 | 360 ft | 26 kts | 227° |
| 2026-05-04 23:12 | 45.74068 | 16.06534 | 361 ft | 26 kts | 227° |
| 2026-05-04 23:12 | 45.73945 | 16.06347 | 361 ft | 26 kts | 226° |
| 2026-05-04 23:13 | 45.73862 | 16.06255 | 361 ft | 13 kts | 184° |
| 2026-05-04 23:13 | 45.73787 | 16.06333 | 360 ft | 10 kts | 137° |
| 2026-05-04 23:13 | 45.73742 | 16.06400 | 359 ft | 7 kts | 115° |
| 2026-05-04 23:13 | 45.73764 | 16.06467 | 359 ft | 9 kts | 52° |
| 2026-05-04 23:14 | 45.73792 | 16.06512 | 359 ft | 10 kts | 46° |
| 2026-05-04 23:14 | 45.73843 | 16.06589 | 359 ft | 12 kts | 47° |
| 2026-05-04 23:14 | 45.73918 | 16.06703 | 359 ft | 18 kts | 46° |
| 2026-05-04 23:14 | 45.74007 | 16.06839 | 359 ft | 20 kts | 46° |
| 2026-05-04 23:15 | 45.74137 | 16.07036 | 359 ft | 21 kts | 47° |
| 2026-05-04 23:15 | 45.74214 | 16.07159 | 364 ft | 12 kts | 59° |